createdAt,value
2023-03-04T00:01:34.292Z,31.68
2023-03-04T00:04:58.480Z,27.42
2023-03-04T00:12:23.677Z,30.15
2023-03-04T00:15:48.831Z,31.10
2023-03-04T00:19:22.023Z,30.90
2023-03-04T00:22:46.205Z,35.55
2023-03-04T00:26:10.194Z,30.95
2023-03-04T00:29:30.300Z,30.48
2023-03-04T00:32:50.180Z,31.93
2023-03-04T00:36:21.945Z,31.37
2023-03-04T00:39:47.229Z,32.28
2023-03-04T00:43:06.639Z,34.10
2023-03-04T00:46:27.738Z,28.77
2023-03-04T00:53:11.121Z,32.50
2023-03-04T00:56:49.239Z,33.65
2023-03-04T01:00:12.991Z,34.48
2023-03-04T01:03:39.029Z,41.83
2023-03-04T01:07:08.545Z,32.48
2023-03-04T01:10:23.822Z,32.45
2023-03-04T01:13:42.582Z,33.15
2023-03-04T01:20:26.964Z,32.25
2023-03-04T01:23:52.181Z,36.63
2023-03-04T01:27:11.457Z,38.70
2023-03-04T01:30:40.345Z,36.98
2023-03-04T01:34:00.312Z,37.17
2023-03-04T01:40:45.599Z,34.08
2023-03-04T01:44:02.641Z,34.85
2023-03-04T01:47:31.602Z,33.15
2023-03-04T01:54:21.557Z,34.25
2023-03-04T01:57:50.274Z,36.42
2023-03-04T02:01:12.235Z,34.63
2023-03-04T02:04:34.774Z,33.95
2023-03-04T02:08:06.320Z,38.58
2023-03-04T02:11:27.234Z,37.88
2023-03-04T02:14:47.401Z,37.50
2023-03-04T02:18:06.597Z,40.38
2023-03-04T02:21:57.120Z,34.95
2023-03-04T02:25:24.765Z,38.30
2023-03-04T02:28:43.795Z,38.13
2023-03-04T02:31:58.970Z,39.30
2023-03-04T02:35:18.618Z,38.55
2023-03-04T02:38:37.306Z,36.60
2023-03-04T02:41:52.145Z,40.92
2023-03-04T02:45:04.777Z,40.10
2023-03-04T02:48:24.839Z,39.78
2023-03-04T02:52:00.285Z,39.08
2023-03-04T02:55:22.531Z,39.13
2023-03-04T02:58:47.649Z,43.15
2023-03-04T03:02:27.504Z,39.05
2023-03-04T03:05:57.110Z,40.05
2023-03-04T03:09:15.065Z,38.78
2023-03-04T03:12:25.932Z,39.15
2023-03-04T03:15:36.096Z,36.73
2023-03-04T03:19:22.836Z,37.15
2023-03-04T03:22:43.206Z,41.15
2023-03-04T03:26:00.018Z,37.90
2023-03-04T03:29:16.014Z,41.68
2023-03-04T03:32:31.705Z,39.70
2023-03-04T03:35:59.532Z,41.60
2023-03-04T03:39:20.962Z,41.05
2023-03-04T03:42:38.534Z,50.78
2023-03-04T03:46:09.639Z,45.05
2023-03-04T03:49:31.215Z,47.62
2023-03-04T03:56:17.968Z,43.00
2023-03-04T03:59:37.641Z,46.73
2023-03-04T04:02:59.189Z,43.50
2023-03-04T04:06:21.427Z,41.68
2023-03-04T04:09:31.582Z,39.88
2023-03-04T04:12:49.859Z,44.93
2023-03-04T04:16:10.648Z,45.20
2023-03-04T04:19:40.538Z,43.05
2023-03-04T04:22:59.820Z,48.85
2023-03-04T04:26:25.850Z,50.43
2023-03-04T04:29:45.596Z,42.78
2023-03-04T04:32:57.424Z,44.20
2023-03-04T04:36:22.839Z,44.27
2023-03-04T04:39:39.939Z,45.03
2023-03-04T04:43:08.346Z,40.60
2023-03-04T04:46:26.273Z,42.03
2023-03-04T04:49:46.976Z,41.08
2023-03-04T04:53:02.277Z,43.80
2023-03-04T04:56:17.014Z,43.38
2023-03-04T04:59:43.384Z,44.83
2023-03-04T05:03:08.514Z,42.13
2023-03-04T05:06:25.522Z,44.45
2023-03-04T05:09:53.085Z,45.65
2023-03-04T05:13:14.716Z,57.35
2023-03-04T05:16:35.124Z,54.05
2023-03-04T05:19:52.748Z,45.43
2023-03-04T05:23:26.952Z,46.95
2023-03-04T05:26:48.810Z,53.23
2023-03-04T05:30:12.002Z,51.48
2023-03-04T05:33:23.459Z,46.15
2023-03-04T05:36:37.970Z,48.23
2023-03-04T05:40:25.049Z,51.33
